createdAt,value
2022-12-09T00:00:53.605Z,28.00
2022-12-09T00:03:23.860Z,26.50
2022-12-09T00:05:50.990Z,32.00
2022-12-09T00:08:19.230Z,29.33
2022-12-09T00:10:46.031Z,29.00
2022-12-09T00:13:13.564Z,29.50
2022-12-09T00:15:41.536Z,27.33
2022-12-09T00:18:08.675Z,28.67
2022-12-09T00:20:36.296Z,25.00
2022-12-09T00:23:03.453Z,37.67
2022-12-09T00:25:31.890Z,30.00
2022-12-09T00:27:58.760Z,32.67
2022-12-09T00:30:25.889Z,29.33
2022-12-09T00:32:53.112Z,28.00
2022-12-09T00:35:20.004Z,23.33
2022-12-09T00:37:47.261Z,26.33
2022-12-09T00:40:16.486Z,28.33
2022-12-09T00:42:45.230Z,24.00
2022-12-09T00:45:12.394Z,28.33
2022-12-09T00:47:39.383Z,25.33
2022-12-09T00:50:07.839Z,23.33
2022-12-09T00:52:35.023Z,19.67
2022-12-09T00:55:02.331Z,25.67
2022-12-09T00:57:29.267Z,28.33
2022-12-09T00:59:57.361Z,28.00
2022-12-09T01:02:24.472Z,27.00
2022-12-09T01:04:52.100Z,37.33
2022-12-09T01:07:19.407Z,21.67
2022-12-09T01:09:46.587Z,28.33
2022-12-09T01:12:13.656Z,28.00
2022-12-09T01:14:40.666Z,42.00
2022-12-09T01:17:08.940Z,43.33
2022-12-09T01:19:36.452Z,30.33
2022-12-09T01:22:03.476Z,31.00
2022-12-09T01:24:30.737Z,28.00
2022-12-09T01:26:57.865Z,40.00
2022-12-09T01:29:25.081Z,47.00
2022-12-09T01:31:54.318Z,21.00
2022-12-09T01:34:22.721Z,23.67
2022-12-09T01:36:52.667Z,32.00
2022-12-09T01:39:19.417Z,30.33
2022-12-09T01:41:46.936Z,28.33
2022-12-09T01:44:20.352Z,28.00
2022-12-09T01:46:48.548Z,28.00
2022-12-09T01:49:23.500Z,21.67
2022-12-09T01:52:01.395Z,25.67
2022-12-09T01:54:30.226Z,27.00
2022-12-09T01:56:58.048Z,25.00
2022-12-09T01:59:27.687Z,28.67
2022-12-09T02:01:59.570Z,27.67
2022-12-09T02:04:33.636Z,26.33
2022-12-09T02:07:08.189Z,26.33
2022-12-09T02:09:35.730Z,26.33
2022-12-09T02:12:14.679Z,27.00
2022-12-09T02:14:52.156Z,24.00
2022-12-09T02:17:35.474Z,21.33
2022-12-09T02:20:19.248Z,23.67
2022-12-09T02:22:53.680Z,25.33
2022-12-09T02:25:30.301Z,32.67
2022-12-09T02:28:39.143Z,27.67
2022-12-09T02:31:22.637Z,28.67
2022-12-09T02:34:14.761Z,25.33
2022-12-09T02:37:09.747Z,25.67
2022-12-09T02:39:46.461Z,28.00
2022-12-09T02:42:21.100Z,22.00
2022-12-09T02:44:51.631Z,29.67
2022-12-09T02:47:27.455Z,24.00
2022-12-09T02:50:02.945Z,29.00
2022-12-09T02:52:34.887Z,32.00
2022-12-09T02:55:07.031Z,27.67
2022-12-09T02:57:38.459Z,25.00
2022-12-09T03:00:09.123Z,28.33
2022-12-09T03:02:42.038Z,25.00
2022-12-09T03:05:21.365Z,24.00
2022-12-09T03:08:02.177Z,24.67
2022-12-09T03:10:39.299Z,24.00
2022-12-09T03:13:15.352Z,24.00
2022-12-09T03:15:50.747Z,22.00
2022-12-09T03:18:22.331Z,26.00
2022-12-09T03:20:50.923Z,26.00
2022-12-09T03:23:26.285Z,21.67
2022-12-09T03:25:56.769Z,24.33
2022-12-09T03:28:30.536Z,24.00
2022-12-09T03:31:04.480Z,25.33
2022-12-09T03:33:32.279Z,25.33
2022-12-09T03:36:06.466Z,28.67
2022-12-09T03:38:40.206Z,25.33
2022-12-09T03:41:17.252Z,25.67
2022-12-09T03:43:53.084Z,31.00
2022-12-09T03:46:22.179Z,24.67
2022-12-09T03:48:49.984Z,28.67
2022-12-09T03:51:26.140Z,27.33
2022-12-09T03:54:00.635Z,27.00
2022-12-09T03:56:33.309Z,26.00
2022-12-09T03:59:04.848Z,28.00
2022-12-09T04:01:32.965Z,28.00
2022-12-09T04:03:59.995Z,29.00
2022-12-09T04:06:28.893Z,37.67
2022-12-09T04:09:00.751Z,25.00
2022-12-09T04:11:29.638Z,27.00
2022-12-09T04:13:56.557Z,29.00
2022-12-09T04:16:23.638Z,25.00
2022-12-09T04:18:51.260Z,25.00
2022-12-09T04:21:18.366Z,22.00
2022-12-09T04:23:46.853Z,26.00
2022-12-09T04:26:17.593Z,29.00
2022-12-09T04:28:44.582Z,26.67
2022-12-09T04:31:13.680Z,28.67
2022-12-09T04:33:41.779Z,26.67
2022-12-09T04:36:12.578Z,30.33
2022-12-09T04:38:40.903Z,25.00
2022-12-09T04:41:09.767Z,32.00
2022-12-09T04:43:37.112Z,33.67
2022-12-09T04:46:11.478Z,32.00
2022-12-09T04:48:38.826Z,33.33
2022-12-09T04:51:08.372Z,28.67
2022-12-09T04:53:36.342Z,30.00
2022-12-09T04:56:07.217Z,38.00
2022-12-09T04:58:36.137Z,34.33
2022-12-09T05:01:06.769Z,28.33
2022-12-09T05:03:34.707Z,29.00
2022-12-09T05:06:04.865Z,22.67
2022-12-09T05:08:32.418Z,29.33
2022-12-09T05:11:00.262Z,29.33
2022-12-09T05:13:28.064Z,28.67
2022-12-09T05:15:59.930Z,24.67
2022-12-09T05:18:27.595Z,26.00
2022-12-09T05:20:55.152Z,30.33
2022-12-09T05:23:23.245Z,37.33
2022-12-09T05:25:50.737Z,55.75
2022-12-09T05:28:17.830Z,45.50
2022-12-09T05:30:45.186Z,38.67
2022-12-09T05:33:14.046Z,45.67
2022-12-09T05:35:52.368Z,68.00
2022-12-09T05:38:22.060Z,45.25
2022-12-09T05:40:49.110Z,38.00
2022-12-09T05:43:16.230Z,35.00
2022-12-09T05:45:43.336Z,38.00
2022-12-09T05:48:10.701Z,35.67
2022-12-09T05:50:39.562Z,33.00
2022-12-09T05:53:06.735Z,30.67
2022-12-09T05:55:33.617Z,31.00
2022-12-09T05:58:01.501Z,27.67
2022-12-09T06:00:28.596Z,30.33
2022-12-09T06:02:55.984Z,35.67
2022-12-09T06:05:23.098Z,31.33
2022-12-09T06:07:52.245Z,29.33
2022-12-09T06:10:19.735Z,27.67
2022-12-09T06:12:46.709Z,25.33
2022-12-09T06:15:18.762Z,30.33
2022-12-09T06:17:48.893Z,54.33
2022-12-09T06:20:16.363Z,53.75
2022-12-09T06:22:43.625Z,48.00
2022-12-09T06:25:12.454Z,50.50
2022-12-09T06:27:40.082Z,44.67
2022-12-09T06:30:08.904Z,44.50
2022-12-09T06:32:36.014Z,36.33
2022-12-09T06:35:03.953Z,38.67
2022-12-09T06:37:30.987Z,34.33
2022-12-09T06:39:57.769Z,35.67
2022-12-09T06:42:26.503Z,31.00
2022-12-09T06:44:53.963Z,32.00
2022-12-09T06:47:21.413Z,36.00
2022-12-09T06:49:49.450Z,36.00
2022-12-09T06:52:16.594Z,33.00
2022-12-09T06:54:43.721Z,24.33
2022-12-09T06:57:10.879Z,26.33
2022-12-09T06:59:39.309Z,27.00
2022-12-09T07:02:07.310Z,26.33
2022-12-09T07:04:34.468Z,25.67
2022-12-09T07:07:02.360Z,31.67
2022-12-09T07:09:29.634Z,26.00
2022-12-09T07:11:56.995Z,28.00
2022-12-09T07:14:24.072Z,25.67
2022-12-09T07:16:52.472Z,32.33
2022-12-09T07:19:23.150Z,28.67
2022-12-09T07:21:51.106Z,27.00
2022-12-09T07:31:21.786Z,32.00
2022-12-09T07:33:52.640Z,30.67
2022-12-09T07:36:22.446Z,28.33
2022-12-09T07:38:53.926Z,28.00
2022-12-09T07:41:21.735Z,25.33
2022-12-09T07:43:49.194Z,30.33
2022-12-09T07:46:19.487Z,27.67
2022-12-09T07:48:48.128Z,32.00
2022-12-09T07:51:17.841Z,39.67
2022-12-09T07:53:46.027Z,43.00
2022-12-09T07:56:15.690Z,42.00
2022-12-09T07:58:44.636Z,39.00
2022-12-09T08:01:15.468Z,38.00
2022-12-09T08:03:43.537Z,43.67
2022-12-09T08:06:12.831Z,45.00
2022-12-09T08:08:42.200Z,35.67
2022-12-09T08:11:13.074Z,32.67
2022-12-09T08:13:41.145Z,30.67
2022-12-09T08:16:12.564Z,25.67
2022-12-09T08:18:41.617Z,26.00
2022-12-09T08:21:12.516Z,28.33
2022-12-09T08:23:41.192Z,31.00
2022-12-09T08:26:10.618Z,32.00
2022-12-09T08:28:38.136Z,28.00
2022-12-09T08:31:10.451Z,28.67
2022-12-09T08:33:38.445Z,33.00
2022-12-09T08:36:12.328Z,30.00
2022-12-09T08:38:41.997Z,38.33
2022-12-09T08:41:13.311Z,35.67
2022-12-09T08:43:42.136Z,26.00
2022-12-09T08:46:10.438Z,33.00
2022-12-09T08:48:39.717Z,32.00
2022-12-09T08:51:12.249Z,29.00
2022-12-09T08:53:54.729Z,36.67
2022-12-09T08:56:26.865Z,28.67
2022-12-09T08:58:55.885Z,38.00
2022-12-09T09:01:25.941Z,31.67
2022-12-09T09:03:53.694Z,32.00
2022-12-09T09:06:21.154Z,32.00
2022-12-09T09:08:56.796Z,32.67
2022-12-09T09:11:26.323Z,32.33
2022-12-09T09:13:53.873Z,33.00
2022-12-09T09:16:24.791Z,35.00
2022-12-09T09:18:53.353Z,27.00
2022-12-09T09:21:24.168Z,35.33
2022-12-09T09:23:52.802Z,31.33
2022-12-09T09:26:22.928Z,28.67
2022-12-09T09:28:50.939Z,32.67
2022-12-09T09:31:20.613Z,31.00
2022-12-09T09:33:47.960Z,32.33
2022-12-09T09:36:18.241Z,36.33
2022-12-09T09:38:45.309Z,32.67
2022-12-09T09:41:28.036Z,30.33
2022-12-09T09:43:57.309Z,42.00
2022-12-09T09:46:39.854Z,39.00
2022-12-09T09:49:18.911Z,36.00
2022-12-09T09:51:47.728Z,35.00
2022-12-09T09:54:16.080Z,28.67
2022-12-09T09:56:53.701Z,37.00
2022-12-09T09:59:37.431Z,36.33
2022-12-09T10:02:17.597Z,32.33
2022-12-09T10:05:12.031Z,39.67
2022-12-09T10:07:48.530Z,30.00
2022-12-09T10:10:35.977Z,36.67
2022-12-09T10:13:25.333Z,35.00
2022-12-09T10:16:06.476Z,34.00
2022-12-09T10:18:41.416Z,36.67
2022-12-09T10:21:17.950Z,32.67
2022-12-09T10:23:46.908Z,34.00
2022-12-09T10:26:25.719Z,31.67
2022-12-09T10:29:07.682Z,34.33
2022-12-09T10:31:35.917Z,42.33
2022-12-09T10:34:03.067Z,36.33
2022-12-09T10:36:36.098Z,32.33
2022-12-09T10:39:04.607Z,38.33
2022-12-09T10:41:48.760Z,40.33
2022-12-09T10:44:29.041Z,34.00
2022-12-09T10:47:02.355Z,35.33
2022-12-09T10:49:31.428Z,35.33
2022-12-09T10:51:58.836Z,33.67
2022-12-09T10:54:35.137Z,40.33
2022-12-09T10:57:22.863Z,34.33
2022-12-09T11:00:06.146Z,43.33
2022-12-09T11:02:34.875Z,34.67
2022-12-09T11:05:25.426Z,36.00
2022-12-09T11:07:56.255Z,39.00
2022-12-09T11:10:27.347Z,40.00
2022-12-09T11:13:07.551Z,37.33
2022-12-09T11:15:42.922Z,38.00
2022-12-09T11:18:20.209Z,34.00
2022-12-09T11:20:57.052Z,36.67
2022-12-09T11:23:24.661Z,48.33
2022-12-09T11:25:55.004Z,36.00
2022-12-09T11:28:28.468Z,42.33
2022-12-09T11:33:54.216Z,40.33
2022-12-09T11:36:27.528Z,39.00
2022-12-09T11:39:19.723Z,32.67
2022-12-09T11:41:48.987Z,36.00
2022-12-09T11:44:26.629Z,30.50
2022-12-09T11:47:02.494Z,32.50
2022-12-09T11:49:35.572Z,36.00
2022-12-09T11:52:21.412Z,37.33
2022-12-09T11:55:02.683Z,36.33
2022-12-09T11:57:36.466Z,38.67
2022-12-09T12:00:17.641Z,34.50
2022-12-09T12:02:57.618Z,33.00
2022-12-09T12:05:31.567Z,34.25
2022-12-09T12:08:16.248Z,34.50
2022-12-09T12:10:50.094Z,29.50
2022-12-09T12:13:28.173Z,32.75
2022-12-09T12:16:08.213Z,38.00
2022-12-09T12:18:45.123Z,32.25
2022-12-09T12:21:32.024Z,32.25
2022-12-09T12:24:35.199Z,31.75
2022-12-09T12:27:26.640Z,32.50
2022-12-09T12:30:02.172Z,32.75
2022-12-09T12:36:00.701Z,24.50
2022-12-09T12:38:56.402Z,33.50
2022-12-09T12:41:37.662Z,32.50
2022-12-09T12:44:25.686Z,32.75
2022-12-09T12:47:11.863Z,38.75
2022-12-09T12:50:04.714Z,46.33
2022-12-09T12:52:56.078Z,37.67
2022-12-09T12:55:45.577Z,28.75
2022-12-09T12:58:43.958Z,32.50
2022-12-09T13:01:23.247Z,38.33
2022-12-09T13:04:01.858Z,40.67
2022-12-09T13:06:41.413Z,32.25
2022-12-09T13:09:17.771Z,31.50
2022-12-09T13:15:26.858Z,31.00
2022-12-09T13:18:39.460Z,30.67
2022-12-09T13:21:24.743Z,36.33
2022-12-09T13:24:10.026Z,34.50
2022-12-09T13:26:55.365Z,39.00
2022-12-09T13:29:36.875Z,34.67
2022-12-09T13:32:27.963Z,33.00
2022-12-09T13:35:09.999Z,35.00
2022-12-09T13:37:58.075Z,30.33
2022-12-09T13:40:36.535Z,35.67
2022-12-09T13:43:18.562Z,38.67
2022-12-09T13:45:54.639Z,33.00
2022-12-09T13:48:48.325Z,40.67
2022-12-09T13:51:17.921Z,34.33
2022-12-09T13:53:51.777Z,37.33
2022-12-09T13:56:25.551Z,35.00
2022-12-09T13:59:37.441Z,33.00
2022-12-09T14:02:20.706Z,37.75
2022-12-09T14:05:05.399Z,33.00
2022-12-09T14:07:42.149Z,37.00
2022-12-09T14:10:41.595Z,40.33
2022-12-09T14:13:30.846Z,38.33
2022-12-09T14:16:31.919Z,41.00
2022-12-09T14:19:44.653Z,48.33
2022-12-09T14:22:35.570Z,45.33
2022-12-09T14:25:58.663Z,38.00
2022-12-09T14:28:59.124Z,44.00
2022-12-09T14:31:50.884Z,41.67
2022-12-09T14:34:29.591Z,39.33
2022-12-09T14:37:49.388Z,44.00
2022-12-09T14:40:45.456Z,39.33
2022-12-09T14:43:34.392Z,40.33
2022-12-09T14:46:05.491Z,41.33
2022-12-09T14:48:40.717Z,39.67
2022-12-09T14:51:18.494Z,45.00
2022-12-09T14:53:51.929Z,38.00
2022-12-09T14:56:22.534Z,39.67
2022-12-09T14:58:55.978Z,35.50
2022-12-09T15:01:23.399Z,40.00
2022-12-09T15:03:55.545Z,42.67
2022-12-09T15:06:24.301Z,42.67
2022-12-09T15:08:56.439Z,35.67
2022-12-09T15:11:29.032Z,42.00
2022-12-09T15:14:00.250Z,43.00
2022-12-09T15:16:27.594Z,50.00
2022-12-09T15:18:56.098Z,48.00
2022-12-09T15:21:29.693Z,52.33
2022-12-09T15:23:58.866Z,48.00
2022-12-09T15:26:29.049Z,41.33
2022-12-09T15:28:58.036Z,41.67
2022-12-09T15:31:28.526Z,50.00
2022-12-09T15:34:57.722Z,42.67
2022-12-09T15:37:28.835Z,48.00
2022-12-09T15:40:12.853Z,45.67
2022-12-09T15:43:02.833Z,47.00
2022-12-09T15:45:39.079Z,49.00
2022-12-09T15:48:14.740Z,15.00
2022-12-09T15:50:50.927Z,51.33
2022-12-09T15:53:26.538Z,45.67
2022-12-09T15:55:58.480Z,44.33
2022-12-09T15:58:30.722Z,46.00
2022-12-09T16:00:58.496Z,14.67
2022-12-09T16:06:37.492Z,44.33
2022-12-09T16:09:15.494Z,43.33
2022-12-09T16:11:45.306Z,37.00
2022-12-09T16:14:14.047Z,42.33
2022-12-09T16:16:45.903Z,45.00
2022-12-09T16:19:34.605Z,42.33
2022-12-09T16:22:06.498Z,45.00
2022-12-09T16:25:13.190Z,40.00
2022-12-09T16:27:38.418Z,42.33
2022-12-09T16:30:14.836Z,43.00
2022-12-09T16:32:45.523Z,46.33
2022-12-09T16:35:22.849Z,43.00
2022-12-09T16:38:18.881Z,47.00
2022-12-09T16:41:14.427Z,36.00
2022-12-09T16:43:57.594Z,40.33
2022-12-09T16:46:38.868Z,44.67
2022-12-09T16:49:05.814Z,48.33
2022-12-09T16:51:32.827Z,36.33
2022-12-09T16:54:00.590Z,43.67
2022-12-09T16:56:31.818Z,47.33
2022-12-09T16:58:59.593Z,52.67
2022-12-09T17:01:31.421Z,46.00
2022-12-09T17:04:03.877Z,44.67
2022-12-09T17:06:31.327Z,48.00
2022-12-09T17:08:58.280Z,45.67
2022-12-09T17:11:25.489Z,33.33
2022-12-09T17:13:56.114Z,44.00
2022-12-09T17:16:23.231Z,44.33
2022-12-09T17:18:50.442Z,45.67
2022-12-09T17:21:18.050Z,41.67
2022-12-09T17:23:45.596Z,40.00
2022-12-09T17:26:16.126Z,45.67
2022-12-09T17:28:44.404Z,39.00
2022-12-09T17:31:17.238Z,42.67
2022-12-09T17:33:44.819Z,43.67
2022-12-09T17:36:13.199Z,44.67
2022-12-09T17:38:40.677Z,42.00
2022-12-09T17:41:12.056Z,42.33
2022-12-09T17:43:39.138Z,44.33
2022-12-09T17:46:06.940Z,48.67
2022-12-09T17:48:35.862Z,38.67
2022-12-09T17:51:06.812Z,50.33
2022-12-09T17:53:36.344Z,38.33
2022-12-09T17:56:08.664Z,42.67
2022-12-09T17:58:36.310Z,42.67
2022-12-09T18:01:03.780Z,45.33
2022-12-09T18:03:54.301Z,43.67
2022-12-09T18:06:18.869Z,52.00
2022-12-09T18:08:45.694Z,44.67
2022-12-09T18:11:12.533Z,49.00
2022-12-09T18:13:39.756Z,43.67
2022-12-09T18:16:09.346Z,44.00
2022-12-09T18:18:36.496Z,48.33
2022-12-09T18:21:04.261Z,48.33
2022-12-09T18:23:32.526Z,46.00
2022-12-09T18:26:00.240Z,42.00
2022-12-09T18:28:27.035Z,45.00
2022-12-09T18:30:54.970Z,43.33
2022-12-09T18:33:23.668Z,40.67
2022-12-09T18:35:51.223Z,48.33
2022-12-09T18:38:18.264Z,48.00
2022-12-09T18:40:46.462Z,46.00
2022-12-09T18:43:13.528Z,50.67
2022-12-09T18:45:40.320Z,41.67
2022-12-09T18:48:07.134Z,46.00
2022-12-09T18:50:37.096Z,47.00
2022-12-09T18:53:03.863Z,42.00
2022-12-09T18:55:30.611Z,48.33
2022-12-09T18:57:59.122Z,46.67
2022-12-09T19:00:26.391Z,48.00
2022-12-09T19:02:53.280Z,42.00
2022-12-09T19:05:20.185Z,46.00
2022-12-09T19:07:46.942Z,44.67
2022-12-09T19:10:13.761Z,43.67
2022-12-09T19:12:50.595Z,46.67
2022-12-09T19:15:22.321Z,42.67
2022-12-09T19:17:49.635Z,47.00
2022-12-09T19:20:16.645Z,43.00
2022-12-09T19:22:43.636Z,44.33
2022-12-09T19:25:10.320Z,36.33
2022-12-09T19:27:37.367Z,39.67
2022-12-09T19:30:05.983Z,42.00
2022-12-09T19:32:53.029Z,42.33
2022-12-09T19:35:20.269Z,46.00
2022-12-09T19:37:46.998Z,40.00
2022-12-09T19:40:13.818Z,36.00
2022-12-09T19:42:40.603Z,42.33
2022-12-09T19:45:13.687Z,38.00
2022-12-09T19:47:42.644Z,40.00
2022-12-09T19:50:10.112Z,34.50
2022-12-09T19:52:37.239Z,39.00
2022-12-09T19:55:05.249Z,38.00
2022-12-09T19:57:32.018Z,40.00
2022-12-09T19:59:58.807Z,38.67
2022-12-09T20:02:25.600Z,35.67
2022-12-09T20:09:54.029Z,42.33
2022-12-09T20:12:22.941Z,40.67
2022-12-09T20:14:50.030Z,29.00
2022-12-09T20:17:16.869Z,42.67
2022-12-09T20:19:43.870Z,37.67
2022-12-09T20:22:12.082Z,32.33
2022-12-09T20:24:39.071Z,38.67
2022-12-09T20:27:06.375Z,40.67
2022-12-09T20:29:37.490Z,39.67
2022-12-09T20:32:07.392Z,40.67
2022-12-09T20:34:35.519Z,40.67
2022-12-09T20:37:02.599Z,44.00
2022-12-09T20:39:31.494Z,37.33
2022-12-09T20:41:58.751Z,42.33
2022-12-09T20:44:25.731Z,47.67
2022-12-09T20:46:53.242Z,44.67
2022-12-09T20:49:20.844Z,48.00
2022-12-09T20:51:47.744Z,42.33
2022-12-09T20:54:15.109Z,44.33
2022-12-09T20:56:43.630Z,41.33
2022-12-09T20:59:11.891Z,43.33
2022-12-09T21:01:39.521Z,44.00
2022-12-09T21:04:07.289Z,49.00
2022-12-09T21:06:37.236Z,52.67
2022-12-09T21:09:08.490Z,43.33
2022-12-09T21:11:36.168Z,46.00
2022-12-09T21:14:06.106Z,39.00
2022-12-09T21:16:37.866Z,45.00
2022-12-09T21:19:07.470Z,42.67
2022-12-09T21:21:36.907Z,40.00
2022-12-09T21:24:04.776Z,43.67
2022-12-09T21:26:32.100Z,33.67
2022-12-09T21:29:00.903Z,43.00
2022-12-09T21:31:32.169Z,41.33
2022-12-09T21:34:03.406Z,42.67
2022-12-09T21:36:33.959Z,39.67
2022-12-09T21:39:02.034Z,42.67
2022-12-09T21:41:32.471Z,42.33
2022-12-09T21:44:00.195Z,42.33
2022-12-09T21:46:30.944Z,39.67
2022-12-09T21:49:03.558Z,41.33
2022-12-09T21:51:31.601Z,49.67
2022-12-09T21:53:59.031Z,39.67
2022-12-09T21:56:29.562Z,40.33
2022-12-09T21:58:59.139Z,44.67
2022-12-09T22:01:31.029Z,42.33
2022-12-09T22:04:00.720Z,47.67
2022-12-09T22:06:29.546Z,47.00
2022-12-09T22:08:59.085Z,39.00
2022-12-09T22:11:30.867Z,48.00
2022-12-09T22:14:00.545Z,46.00
2022-12-09T22:16:32.419Z,39.00
2022-12-09T22:19:01.686Z,47.33
2022-12-09T22:21:30.739Z,42.67
2022-12-09T22:24:02.272Z,35.67
2022-12-09T22:26:30.238Z,42.67
2022-12-09T22:28:59.658Z,34.33
2022-12-09T22:31:31.477Z,42.33
2022-12-09T22:34:01.710Z,42.00
2022-12-09T22:36:29.299Z,43.00
2022-12-09T22:38:56.252Z,42.67
2022-12-09T22:41:28.299Z,37.00
2022-12-09T22:43:56.675Z,40.67
2022-12-09T22:46:27.306Z,37.33
2022-12-09T22:48:56.718Z,36.00
2022-12-09T22:51:27.836Z,31.67
2022-12-09T22:53:57.127Z,37.33
2022-12-09T22:56:25.775Z,38.33
2022-12-09T22:58:52.867Z,40.67
2022-12-09T23:01:23.840Z,36.00
2022-12-09T23:03:50.609Z,43.67
2022-12-09T23:06:18.979Z,37.67
2022-12-09T23:08:45.886Z,39.67
2022-12-09T23:11:17.426Z,41.33
2022-12-09T23:13:45.381Z,43.00
2022-12-09T23:16:15.679Z,40.00
2022-12-09T23:18:42.945Z,38.67
2022-12-09T23:21:13.235Z,34.67
2022-12-09T23:23:43.144Z,40.00
2022-12-09T23:26:13.422Z,35.67
2022-12-09T23:28:43.854Z,38.67
2022-12-09T23:31:13.415Z,40.00
2022-12-09T23:33:43.363Z,35.67
2022-12-09T23:36:13.559Z,39.33
2022-12-09T23:38:43.342Z,39.33
2022-12-09T23:41:11.657Z,46.33
2022-12-09T23:43:38.804Z,39.67
2022-12-09T23:46:14.901Z,42.00
2022-12-09T23:48:43.497Z,41.67
2022-12-09T23:51:12.094Z,41.00
2022-12-09T23:53:40.468Z,41.00
2022-12-09T23:56:12.083Z,42.00
2022-12-09T23:58:39.116Z,46.67
